EBBR/BRU METAR and TAF weather

Enter ICAO airport designator
Station Type Date Time Source
EBBR METAR 2018/04/20 08:20 UTC NOAA

EBBR 200820Z 22005KT CAVOK 23/13 Q1023 NOSIG


Station Type Date Time Source
EBBR Decoded METAR 2018/04/20 08:20 UTC NOAA

Bruxelles National, Belgium (EBBR) 50-54N 004-32E 58M
Apr 20, 2018 - 04:20 AM EDT / 2018.04.20 0820 UTC
Wind: from the SW (220 degrees) at 6 MPH (5 KT):0
Visibility: greater than 7 mile(s):0
Temperature: 73 F (23 C)
Dew Point: 55 F (13 C)
Relative Humidity: 53%
Pressure (altimeter): 30.21 in. Hg (1023 hPa)
ob: EBBR 200820Z 22005KT CAVOK 23/13 Q1023 NOSIG
cycle: 8

Station Type Date Time Source
EBBR TAF 2018/04/20 06:27 UTC NOAA

TAF TAF EBBR 200500Z 2006/2112 23006KT CAVOK
TEMPO 2101/2108 3500 BR PROB30
TEMPO 2103/2107 0700 BCFG BKN002


Example: see airport list